Time;durP1;ratioP1;P1;durP2;ratioP2;P2;SDS_P1;SDS_P2;PMS_P1;PMS_P2;Temp;Humidity;BMP_temperature;BMP_pressure;BME280_temperature;BME280_humidity;BME280_pressure;Samples;Min_cycle;Max_cycle;Signal;HPM_P1;HPM_P2
2023/10/29 00:01:10;;;;;;;0.10;0.10;;;;;;;14.06;83.38;97180.94;7362956;19;20007;-59
2023/10/29 00:03:35;;;;;;;0.10;0.10;;;;;;;14.10;83.59;97188.38;7363653;19;20020;-59
2023/10/29 00:06:00;;;;;;;0.10;0.10;;;;;;;14.11;83.78;97195.25;7357085;19;20007;-60
2023/10/29 00:08:26;;;;;;;0.10;0.10;;;;;;;14.12;83.75;97199.53;7361419;19;21132;-60
2023/10/29 00:10:51;;;;;;;0.00;0.00;;;;;;;14.10;84.07;97183.13;7362072;19;20011;-60
2023/10/29 00:13:16;;;;;;;0.10;0.10;;;;;;;14.12;84.08;97185.59;7358607;19;20445;-59
2023/10/29 00:15:42;;;;;;;0.10;0.10;;;;;;;14.14;83.91;97181.88;7358535;19;20110;-60
2023/10/29 00:18:13;;;;;;;0.10;0.10;;;;;;;14.16;84.10;97181.72;7361621;19;20002;-58
2023/10/29 00:20:39;;;;;;;0.10;0.10;;;;;;;14.16;83.89;97182.53;7360551;19;20097;-60
2023/10/29 00:23:05;;;;;;;0.10;0.10;;;;;;;14.18;84.35;97179.78;7362795;19;20467;-59
2023/10/29 00:25:30;;;;;;;0.10;0.10;;;;;;;14.19;84.13;97181.41;7357297;19;20031;-60
2023/10/29 00:27:55;;;;;;;0.10;0.10;;;;;;;14.18;83.86;97175.34;7358044;19;20581;-60
2023/10/29 00:30:21;;;;;;;0.10;0.10;;;;;;;14.19;84.31;97179.66;7358886;19;20036;-59
2023/10/29 00:32:46;;;;;;;0.10;0.10;;;;;;;14.21;84.03;97185.56;7363790;19;20014;-59
2023/10/29 00:35:12;;;;;;;0.10;0.10;;;;;;;14.14;83.96;97166.13;7363233;19;20010;-60
2023/10/29 00:37:37;;;;;;;0.10;0.10;;;;;;;14.23;83.85;97173.13;7358128;19;20431;-58
2023/10/29 00:40:04;;;;;;;0.10;0.10;;;;;;;14.22;84.14;97171.47;7360327;19;20018;-60
2023/10/29 00:42:30;;;;;;;0.10;0.10;;;;;;;14.26;83.89;97178.09;7359715;19;20006;-60
2023/10/29 00:44:55;;;;;;;0.10;0.10;;;;;;;14.26;83.90;97172.84;7361127;19;21273;-60
2023/10/29 00:47:20;;;;;;;0.10;0.10;;;;;;;14.26;83.71;97180.72;7359846;19;20031;-60
2023/10/29 00:49:46;;;;;;;0.05;0.05;;;;;;;14.28;84.10;97181.38;7366342;19;20753;-59
2023/10/29 00:52:13;;;;;;;0.00;0.00;;;;;;;14.29;83.99;97176.94;7354484;19;20429;-59
2023/10/29 00:54:39;;;;;;;0.10;0.10;;;;;;;14.16;84.10;97151.06;7361291;19;20025;-60
2023/10/29 00:57:05;;;;;;;0.10;0.10;;;;;;;14.29;83.83;97176.94;7357272;19;20015;-60
2023/10/29 00:59:31;;;;;;;0.10;0.10;;;;;;;14.31;83.79;97179.47;7355145;19;20354;-61
2023/10/29 01:01:56;;;;;;;0.10;0.10;;;;;;;14.31;83.61;97174.22;7359026;19;20030;-60
2023/10/29 01:04:22;;;;;;;0.10;0.10;;;;;;;14.31;83.50;97182.09;7359238;19;20006;-60
2023/10/29 01:06:48;;;;;;;0.10;0.10;;;;;;;14.28;83.70;97186.63;7357817;19;20828;-60
2023/10/29 01:09:14;;;;;;;0.10;0.10;;;;;;;14.27;83.33;97184.97;7359210;19;20022;-60
2023/10/29 01:11:40;;;;;;;0.10;0.10;;;;;;;14.27;83.46;97194.66;7358208;19;20017;-59
2023/10/29 01:14:05;;;;;;;0.10;0.10;;;;;;;14.26;83.34;97193.84;7369465;19;20014;-60
2023/10/29 01:16:31;;;;;;;0.10;0.10;;;;;;;14.25;82.96;97213.19;7366047;19;20016;-59
2023/10/29 01:18:58;;;;;;;0.10;0.10;;;;;;;14.24;83.25;97216.78;7358768;19;20074;-60
2023/10/29 01:21:25;;;;;;;0.00;0.00;;;;;;;14.22;82.83;97218.69;7359417;19;20018;-58
2023/10/29 01:23:51;;;;;;;0.08;0.08;;;;;;;14.19;82.63;97212.91;7353319;19;20011;-60
2023/10/29 01:26:17;;;;;;;0.10;0.10;;;;;;;14.12;82.83;97212.66;7361443;19;20013;-60
2023/10/29 01:28:43;;;;;;;0.10;0.10;;;;;;;14.01;82.63;97205.78;7349810;19;20153;-59
2023/10/29 01:31:09;;;;;;;0.00;0.00;;;;;;;14.04;82.52;97215.19;7359928;19;20378;-60
2023/10/29 01:33:35;;;;;;;0.10;0.10;;;;;;;13.99;82.65;97217.41;7360119;19;20017;-60
2023/10/29 01:36:00;;;;;;;0.10;0.10;;;;;;;13.93;82.41;97217.94;7360549;19;20018;-59
2023/10/29 01:38:26;;;;;;;0.10;0.10;;;;;;;13.89;82.54;97221.81;7360378;19;20012;-60
2023/10/29 01:40:51;;;;;;;0.10;0.10;;;;;;;13.83;82.64;97225.00;7358438;19;20074;-59
2023/10/29 01:43:17;;;;;;;0.10;0.10;;;;;;;13.79;82.42;97227.09;7355592;19;20101;-61
2023/10/29 01:45:43;;;;;;;0.10;0.10;;;;;;;13.74;82.75;97234.56;7356648;19;20024;-59
2023/10/29 01:48:08;;;;;;;0.10;0.10;;;;;;;13.69;82.75;97234.97;7355435;19;20015;-59
2023/10/29 01:50:35;;;;;;;0.10;0.10;;;;;;;13.66;82.70;97240.47;7358272;19;20007;-60
2023/10/29 01:53:01;;;;;;;0.10;0.10;;;;;;;13.63;82.87;97239.91;7358082;19;20397;-59
2023/10/29 01:55:26;;;;;;;0.10;0.10;;;;;;;13.60;83.26;97243.66;7359294;19;20024;-59
2023/10/29 01:57:52;;;;;;;0.10;0.10;;;;;;;13.58;83.03;97242.13;7349579;19;20862;-60
2023/10/29 02:00:19;;;;;;;0.08;0.08;;;;;;;13.54;82.71;97233.72;7356172;19;20035;-58
2023/10/29 02:02:46;;;;;;;0.10;0.10;;;;;;;13.55;83.07;97245.03;7352561;19;20082;-60
2023/10/29 02:05:11;;;;;;;;;;;;;;;13.56;82.30;97246.69;7358007;19;20466;-60
2023/10/29 02:07:37;;;;;;;0.10;0.10;;;;;;;13.41;82.59;97233.16;7359201;19;19923;-59
2023/10/29 02:10:02;;;;;;;0.05;0.05;;;;;;;13.46;82.47;97242.28;7357121;19;20015;-60
2023/10/29 02:12:28;;;;;;;0.10;0.10;;;;;;;13.45;82.05;97252.91;7354397;19;20112;-61
2023/10/29 02:14:53;;;;;;;0.10;0.10;;;;;;;13.35;82.60;97244.19;7356847;19;20010;-60
2023/10/29 02:17:19;;;;;;;0.10;0.10;;;;;;;13.38;82.16;97249.16;7357030;19;20022;-60
2023/10/29 02:19:44;;;;;;;0.10;0.10;;;;;;;13.32;82.30;97249.69;7356777;19;20082;-60
2023/10/29 02:22:09;;;;;;;0.10;0.10;;;;;;;13.30;81.90;97256.88;7353454;19;20017;-60
2023/10/29 02:24:35;;;;;;;0.10;0.10;;;;;;;13.26;82.30;97256.31;7356148;19;20046;-60
2023/10/29 02:27:00;;;;;;;0.10;0.10;;;;;;;13.21;81.95;97246.25;7350801;19;20032;-60
2023/10/29 02:29:26;;;;;;;0.10;0.10;;;;;;;13.15;81.77;97252.00;7355991;19;20007;-61
2023/10/29 02:31:51;;;;;;;0.00;0.00;;;;;;;13.12;82.13;97254.88;7355634;19;20034;-61
2023/10/29 02:34:17;;;;;;;0.00;0.00;;;;;;;13.10;81.51;97262.06;7353554;19;20014;-60
2023/10/29 02:36:42;;;;;;;0.10;0.10;;;;;;;13.05;82.11;97259.00;7356654;19;20823;-59
2023/10/29 02:39:07;;;;;;;0.10;0.10;;;;;;;13.01;82.02;97252.38;7356227;19;20883;-60
2023/10/29 02:41:33;;;;;;;0.10;0.10;;;;;;;12.99;82.10;97249.06;7358581;19;20010;-60
2023/10/29 02:43:58;;;;;;;0.10;0.10;;;;;;;12.97;82.18;97251.00;7356661;19;20474;-59
2023/10/29 02:46:24;;;;;;;0.10;0.10;;;;;;;12.89;82.59;97237.75;7352001;19;20495;-60
2023/10/29 02:48:50;;;;;;;0.00;0.00;;;;;;;12.90;82.30;97249.88;7360107;19;20014;-59
2023/10/29 02:51:15;;;;;;;0.10;0.10;;;;;;;12.79;82.23;97242.13;7355066;19;20017;-61
2023/10/29 02:53:41;;;;;;;0.10;0.10;;;;;;;12.85;82.25;97244.22;7358343;19;20605;-59
2023/10/29 02:56:07;;;;;;;0.10;0.10;;;;;;;12.81;82.20;97250.66;7365816;19;20018;-61
2023/10/29 02:58:32;;;;;;;0.10;0.10;;;;;;;12.80;82.68;97251.63;7355282;19;20006;-60
2023/10/29 03:01:08;;;;;;;0.10;0.10;;;;;;;12.78;82.24;97240.47;7363777;19;20046;-60
2023/10/29 03:03:35;;;;;;;0.10;0.10;;;;;;;12.71;82.72;97241.00;7360544;19;20018;-60
2023/10/29 03:06:05;;;;;;;0.10;0.10;;;;;;;12.73;82.25;97249.56;7362292;19;20025;-60
2023/10/29 03:08:31;;;;;;;0.10;0.10;;;;;;;12.69;82.21;97253.41;7359554;19;20014;-61
2023/10/29 03:10:56;;;;;;;0.10;0.10;;;;;;;12.67;82.68;97250.09;7360911;19;20010;-60
2023/10/29 03:13:21;;;;;;;0.10;0.10;;;;;;;12.66;82.57;97251.03;7361532;19;20011;-60
2023/10/29 03:15:47;;;;;;;0.10;0.10;;;;;;;12.62;82.82;97243.56;7363047;19;20010;-60
2023/10/29 03:18:13;;;;;;;0.00;0.00;;;;;;;12.63;82.48;97247.88;7370000;19;20022;-60
2023/10/29 03:20:39;;;;;;;0.10;0.10;;;;;;;12.58;82.41;97245.66;7365171;19;20801;-60
2023/10/29 03:23:05;;;;;;;0.00;0.00;;;;;;;12.59;82.55;97242.06;7362313;19;20090;-61
2023/10/29 03:25:30;;;;;;;0.10;0.10;;;;;;;12.58;82.57;97245.66;7367995;19;20399;-60
2023/10/29 03:27:56;;;;;;;0.10;0.10;;;;;;;12.52;82.31;97246.19;7364626;19;20742;-60
2023/10/29 03:30:22;;;;;;;0.10;0.10;;;;;;;12.54;82.41;97246.03;7362672;19;20025;-60
2023/10/29 03:32:47;;;;;;;0.10;0.10;;;;;;;12.51;82.35;97236.66;7367618;19;20018;-60
2023/10/29 03:35:13;;;;;;;0.10;0.10;;;;;;;12.49;82.50;97256.91;7367569;19;20006;-61
2023/10/29 03:37:38;;;;;;;0.10;0.10;;;;;;;12.45;82.58;97242.41;7365828;19;20022;-60
2023/10/29 03:40:06;;;;;;;0.08;0.08;;;;;;;12.44;82.67;97248.63;7368463;19;20027;-60
2023/10/29 03:42:32;;;;;;;0.10;0.10;;;;;;;12.39;82.81;97243.78;7368153;19;20475;-61
2023/10/29 03:44:58;;;;;;;0.10;0.10;;;;;;;12.42;82.71;97253.16;7370084;19;20054;-60
2023/10/29 03:47:23;;;;;;;0.10;0.10;;;;;;;12.38;82.09;97247.34;7366181;19;20015;-60
2023/10/29 03:49:48;;;;;;;0.10;0.10;;;;;;;12.37;82.43;97250.94;7366424;19;20514;-59
2023/10/29 03:52:14;;;;;;;0.10;0.10;;;;;;;12.32;82.03;97245.25;7367031;19;20018;-60
2023/10/29 03:54:39;;;;;;;0.10;0.10;;;;;;;12.31;81.93;97253.22;7368547;19;20006;-59
2023/10/29 03:57:05;;;;;;;0.10;0.10;;;;;;;12.16;82.01;97243.09;7367238;19;20014;-58
2023/10/29 03:59:30;;;;;;;0.00;0.00;;;;;;;12.20;81.13;97262.81;7359941;19;20190;-60
2023/10/29 04:01:55;;;;;;;0.10;0.10;;;;;;;12.13;81.65;97259.06;7365375;19;20022;-60
2023/10/29 04:04:21;;;;;;;0.10;0.10;;;;;;;12.09;81.29;97254.22;7370272;19;20011;-60
2023/10/29 04:06:49;;;;;;;0.10;0.10;;;;;;;12.03;80.97;97266.00;7369850;19;20035;-60
2023/10/29 04:09:14;;;;;;;0.10;0.10;;;;;;;11.96;81.88;97264.84;7375176;19;20026;-60
2023/10/29 04:11:40;;;;;;;0.10;0.10;;;;;;;11.90;81.84;97270.59;7361320;19;20528;-60
2023/10/29 04:14:05;;;;;;;0.10;0.10;;;;;;;11.84;81.87;97260.66;7365817;19;20013;-60
2023/10/29 04:16:32;;;;;;;0.10;0.10;;;;;;;11.78;81.47;97264.56;7370598;19;20074;-60
2023/10/29 04:18:57;;;;;;;0.10;0.10;;;;;;;11.69;81.42;97258.31;7347863;19;20010;-60
2023/10/29 04:21:22;;;;;;;0.10;0.10;;;;;;;11.65;81.31;97269.97;7362580;19;20738;-60
2023/10/29 04:23:49;;;;;;;0.00;0.00;;;;;;;11.59;81.19;97273.09;7365594;19;20776;-60
2023/10/29 04:26:15;;;;;;;0.03;0.03;;;;;;;11.49;81.29;97266.13;7372683;19;20057;-60
2023/10/29 04:28:40;;;;;;;0.00;0.00;;;;;;;11.48;81.32;97280.16;7364380;19;21202;-60
2023/10/29 04:31:06;;;;;;;0.10;0.10;;;;;;;11.42;81.25;97281.47;7340672;19;20623;-60
2023/10/29 04:33:32;;;;;;;0.10;0.10;;;;;;;11.35;81.61;97291.59;7367224;19;20089;-60
2023/10/29 04:35:58;;;;;;;0.10;0.10;;;;;;;11.28;81.71;97289.59;7359583;19;20091;-60
2023/10/29 04:38:23;;;;;;;0.10;0.10;;;;;;;11.25;81.73;97297.66;7363947;19;20074;-60
2023/10/29 04:40:49;;;;;;;0.00;0.00;;;;;;;11.03;81.77;97275.88;7364151;19;20010;-60
2023/10/29 04:43:14;;;;;;;0.03;0.03;;;;;;;11.14;81.73;97308.97;7365865;19;20015;-60
2023/10/29 04:45:39;;;;;;;0.10;0.10;;;;;;;11.09;80.86;97311.94;7364108;19;20007;-58
2023/10/29 04:48:05;;;;;;;0.10;0.10;;;;;;;11.05;80.89;97309.69;7367764;19;20097;-60
2023/10/29 04:50:31;;;;;;;0.00;0.00;;;;;;;11.00;81.81;97311.81;7359296;19;20011;-60
2023/10/29 04:52:57;;;;;;;0.10;0.10;;;;;;;10.96;81.67;97316.47;7361803;19;20041;-60
2023/10/29 04:55:23;;;;;;;0.00;0.00;;;;;;;10.91;81.62;97323.84;7365964;19;20014;-60
2023/10/29 04:57:49;;;;;;;0.10;0.10;;;;;;;10.87;81.85;97319.78;7366156;19;20025;-60
2023/10/29 05:00:14;;;;;;;0.10;0.10;;;;;;;10.83;82.11;97326.19;7359987;19;20799;-59
2023/10/29 05:02:40;;;;;;;0.10;0.10;;;;;;;10.80;82.70;97326.44;7364821;19;20053;-60
2023/10/29 05:05:06;;;;;;;0.10;0.10;;;;;;;10.76;82.48;97336.28;7365043;19;20123;-60
2023/10/29 05:07:33;;;;;;;0.00;0.00;;;;;;;10.71;82.52;97337.59;7365318;19;20014;-60
2023/10/29 05:09:59;;;;;;;0.10;0.10;;;;;;;10.70;83.09;97341.16;7360660;19;20044;-60
2023/10/29 05:12:24;;;;;;;0.00;0.00;;;;;;;10.67;83.04;97341.38;7364256;19;20014;-60
2023/10/29 05:14:51;;;;;;;0.10;0.10;;;;;;;10.59;83.11;97336.75;7365230;19;20014;-60
2023/10/29 05:17:17;;;;;;;0.10;0.10;;;;;;;10.62;82.76;97339.94;7365749;19;20015;-59
2023/10/29 05:19:43;;;;;;;0.03;0.03;;;;;;;10.59;83.15;97342.81;7365016;19;20010;-60
2023/10/29 05:22:08;;;;;;;0.10;0.10;;;;;;;10.48;82.95;97329.72;7358080;19;20365;-60
2023/10/29 05:24:34;;;;;;;0.10;0.10;;;;;;;10.54;83.00;97341.47;7364370;19;20019;-60
2023/10/29 05:26:59;;;;;;;0.00;0.00;;;;;;;10.37;82.58;97307.06;7367140;19;20021;-61
2023/10/29 05:29:26;;;;;;;0.10;0.10;;;;;;;10.47;82.95;97325.47;7364973;19;20011;-60
2023/10/29 05:31:51;;;;;;;0.10;0.10;;;;;;;10.46;82.70;97326.41;7365115;19;20022;-60
2023/10/29 05:34:17;;;;;;;0.00;0.00;;;;;;;10.41;82.81;97320.72;7364929;19;20358;-60
2023/10/29 05:36:42;;;;;;;0.10;0.10;;;;;;;10.32;82.78;97300.56;7362074;19;20353;-60
2023/10/29 05:39:08;;;;;;;0.10;0.10;;;;;;;10.37;82.72;97320.13;7363826;19;20010;-60
2023/10/29 05:41:33;;;;;;;0.10;0.10;;;;;;;10.25;82.61;97307.19;7360883;19;20018;-59
2023/10/29 05:43:59;;;;;;;0.10;0.10;;;;;;;10.28;82.50;97319.97;7354289;19;20010;-59
2023/10/29 05:46:24;;;;;;;0.10;0.10;;;;;;;10.28;82.97;97338.22;7361944;19;20486;-60
2023/10/29 05:48:50;;;;;;;0.10;0.10;;;;;;;10.25;83.00;97335.88;7369264;19;20034;-60
2023/10/29 05:51:19;;;;;;;0.05;0.05;;;;;;;10.07;82.47;97307.59;7362162;19;20014;-60
2023/10/29 05:53:46;;;;;;;0.10;0.10;;;;;;;10.11;82.60;97329.03;7363241;19;20013;-60
2023/10/29 05:56:12;;;;;;;0.10;0.10;;;;;;;10.16;82.53;97333.91;7359258;19;20018;-60
2023/10/29 05:58:37;;;;;;;0.10;0.10;;;;;;;10.12;82.47;97335.91;7360836;19;20348;-59
2023/10/29 06:01:02;;;;;;;0.00;0.00;;;;;;;10.09;82.54;97342.22;7359033;19;20019;-60
2023/10/29 06:03:28;;;;;;;0.10;0.10;;;;;;;10.06;82.65;97337.22;7362754;19;20010;-60
2023/10/29 06:05:54;;;;;;;0.10;0.10;;;;;;;10.02;82.67;97327.94;7359902;19;20007;-59
2023/10/29 06:08:21;;;;;;;0.10;0.10;;;;;;;9.98;82.69;97331.72;7357884;19;20006;-60
2023/10/29 06:10:47;;;;;;;0.10;0.10;;;;;;;9.98;82.71;97339.53;7363825;19;20018;-60
2023/10/29 06:13:12;;;;;;;0.00;0.00;;;;;;;9.95;83.03;97339.78;7364910;19;20010;-60
2023/10/29 06:15:37;;;;;;;0.03;0.03;;;;;;;9.83;82.85;97325.91;7359304;19;20022;-60
2023/10/29 06:18:04;;;;;;;0.00;0.00;;;;;;;9.88;82.69;97338.56;7364360;19;20011;-60
2023/10/29 06:20:30;;;;;;;0.10;0.10;;;;;;;9.84;82.63;97340.56;7357561;19;20014;-59
2023/10/29 06:22:55;;;;;;;0.00;0.00;;;;;;;9.84;82.98;97344.97;7362462;19;20023;-60
2023/10/29 06:25:20;;;;;;;0.10;0.10;;;;;;;9.82;83.01;97344.22;7345646;19;20010;-58
2023/10/29 06:27:46;;;;;;;0.10;0.10;;;;;;;9.71;82.82;97331.16;7360527;19;20030;-59
2023/10/29 06:30:11;;;;;;;0.00;0.00;;;;;;;9.76;82.92;97349.88;7359504;19;20018;-60
2023/10/29 06:32:37;;;;;;;0.10;0.10;;;;;;;9.53;82.55;97315.94;7362870;19;20042;-60
2023/10/29 06:35:03;;;;;;;0.10;0.10;;;;;;;9.70;82.73;97350.34;7368957;19;20046;-60
2023/10/29 06:37:29;;;;;;;0.10;0.10;;;;;;;9.57;82.82;97343.41;7366916;19;20011;-60
2023/10/29 06:39:55;;;;;;;0.03;0.03;;;;;;;9.66;82.91;97359.31;7371258;19;20870;-59
2023/10/29 06:42:20;;;;;;;0.00;0.00;;;;;;;9.46;82.43;97332.94;7368298;19;20015;-60
2023/10/29 06:44:46;;;;;;;0.10;0.10;;;;;;;9.57;82.75;97353.81;7365179;19;20025;-60
2023/10/29 06:47:11;;;;;;;0.00;0.00;;;;;;;9.56;82.59;97354.75;7358607;19;20475;-60
2023/10/29 06:49:36;;;;;;;0.00;0.00;;;;;;;9.56;82.78;97359.97;7361906;19;20027;-60
2023/10/29 06:52:02;;;;;;;0.00;0.00;;;;;;;9.52;82.72;97363.72;7356571;19;20006;-60
2023/10/29 06:54:27;;;;;;;0.10;0.10;;;;;;;9.49;82.34;97358.75;7362550;19;20113;-59
2023/10/29 06:56:53;;;;;;;0.10;0.10;;;;;;;9.44;82.60;97366.06;7362764;19;20645;-60
2023/10/29 06:59:18;;;;;;;0.10;0.10;;;;;;;9.44;82.65;97373.06;7355762;19;20006;-60
2023/10/29 07:01:44;;;;;;;0.10;0.10;;;;;;;9.42;82.53;97382.75;7355744;19;20011;-59
2023/10/29 07:04:09;;;;;;;0.00;0.00;;;;;;;9.40;82.33;97382.03;7361023;19;20399;-58
2023/10/29 07:06:35;;;;;;;0.10;0.10;;;;;;;9.36;82.39;97378.78;7358897;19;20377;-60
2023/10/29 07:09:01;;;;;;;0.00;0.00;;;;;;;9.30;82.60;97379.25;7361528;19;20351;-60
2023/10/29 07:11:29;;;;;;;0.00;0.00;;;;;;;9.27;82.68;97390.69;7349185;19;20025;-60
2023/10/29 07:13:54;;;;;;;0.10;0.10;;;;;;;9.27;82.74;97406.31;7360047;19;20014;-60
2023/10/29 07:16:20;;;;;;;0.10;0.10;;;;;;;9.22;82.47;97394.56;7362009;19;20017;-59
2023/10/29 07:18:45;;;;;;;0.00;0.00;;;;;;;9.23;82.64;97404.06;7360810;19;20656;-60
2023/10/29 07:21:10;;;;;;;0.10;0.10;;;;;;;9.22;82.48;97413.59;7355739;19;20090;-60
2023/10/29 07:23:36;;;;;;;0.10;0.10;;;;;;;9.02;82.42;97378.59;7354811;19;20681;-59
2023/10/29 07:26:01;;;;;;;0.10;0.10;;;;;;;9.15;82.76;97412.38;7356854;19;20046;-58
2023/10/29 07:28:28;;;;;;;0.00;0.00;;;;;;;9.15;82.65;97419.38;7359734;19;20007;-60
2023/10/29 07:30:54;;;;;;;0.00;0.00;;;;;;;9.15;83.01;97414.16;7361803;19;20684;-60
2023/10/29 07:33:19;;;;;;;0.10;0.10;;;;;;;9.14;82.63;97417.69;7360870;19;20014;-59
2023/10/29 07:35:45;;;;;;;0.10;0.10;;;;;;;9.13;82.99;97424.69;7343216;19;20030;-60
2023/10/29 07:38:10;;;;;;;0.00;0.00;;;;;;;9.13;83.14;97422.09;7362204;19;20003;-57
2023/10/29 07:40:36;;;;;;;0.00;0.00;;;;;;;8.99;82.78;97407.41;7359202;19;20009;-60
2023/10/29 07:43:01;;;;;;;0.10;0.10;;;;;;;9.13;83.20;97426.47;7367306;19;20017;-59
2023/10/29 07:45:26;;;;;;;0.05;0.05;;;;;;;9.19;83.11;97433.84;7363481;19;20022;-60
2023/10/29 07:47:52;;;;;;;0.10;0.10;;;;;;;9.21;83.25;97429.34;7369903;19;20020;-59
2023/10/29 07:50:17;;;;;;;0.10;0.10;;;;;;;9.23;83.29;97430.91;7358506;19;20010;-60
2023/10/29 07:52:43;;;;;;;0.08;0.08;;;;;;;9.27;83.66;97431.50;7363985;19;20368;-60
2023/10/29 07:55:09;;;;;;;0.08;0.08;;;;;;;9.30;83.63;97433.91;7365527;19;20499;-59
2023/10/29 07:57:36;;;;;;;0.10;0.10;;;;;;;9.32;83.07;97426.81;7369089;19;20014;-60
2023/10/29 08:00:04;;;;;;;0.00;0.00;;;;;;;9.36;83.57;97430.88;7365732;19;20081;-60
2023/10/29 08:02:30;;;;;;;;;;;;;;;9.41;82.74;97428.78;7367844;19;20115;-60
2023/10/29 08:04:55;;;;;;;0.10;0.10;;;;;;;9.40;82.80;97432.34;7365701;19;19926;-59
2023/10/29 08:07:21;;;;;;;0.10;0.10;;;;;;;9.40;82.97;97429.72;7369402;19;20046;-60
2023/10/29 08:09:46;;;;;;;0.00;0.00;;;;;;;9.42;83.20;97427.00;7367284;19;20010;-60
2023/10/29 08:12:11;;;;;;;0.05;0.05;;;;;;;9.43;82.90;97432.13;7342816;19;20024;-60
2023/10/29 08:14:37;;;;;;;0.10;0.10;;;;;;;9.43;82.85;97426.91;7363053;19;20031;-59
2023/10/29 08:17:03;;;;;;;0.10;0.10;;;;;;;9.32;82.92;97413.81;7367083;19;20019;-59
2023/10/29 08:19:28;;;;;;;0.10;0.10;;;;;;;9.45;83.25;97422.44;7366575;19;20042;-58
2023/10/29 08:21:53;;;;;;;0.08;0.08;;;;;;;9.48;83.25;97427.44;7365324;19;20022;-59
2023/10/29 08:24:19;;;;;;;0.10;0.10;;;;;;;9.45;83.20;97419.81;7362330;19;20490;-60
2023/10/29 08:26:44;;;;;;;0.10;0.10;;;;;;;9.56;83.30;97432.91;7373152;19;20014;-59
2023/10/29 08:29:11;;;;;;;0.00;0.00;;;;;;;9.54;82.85;97424.38;7369957;19;20522;-60
2023/10/29 08:31:37;;;;;;;0.10;0.10;;;;;;;9.60;83.24;97431.75;7370627;19;20020;-59
2023/10/29 08:34:02;;;;;;;0.10;0.10;;;;;;;9.64;82.81;97436.75;7361048;19;20003;-60
2023/10/29 08:36:28;;;;;;;0.00;0.00;;;;;;;9.66;82.93;97445.28;7364243;19;20018;-60
2023/10/29 08:38:54;;;;;;;0.10;0.10;;;;;;;9.69;83.09;97437.28;7366408;19;20010;-59
2023/10/29 08:41:20;;;;;;;0.10;0.10;;;;;;;9.72;83.34;97442.25;7363053;19;20727;-58
2023/10/29 08:43:45;;;;;;;0.10;0.10;;;;;;;9.75;83.65;97442.88;7363073;19;20026;-60
2023/10/29 08:46:11;;;;;;;0.10;0.10;;;;;;;9.82;83.79;97440.66;7360848;19;20010;-60
2023/10/29 08:48:37;;;;;;;0.10;0.10;;;;;;;9.86;83.41;97440.31;7372604;19;20005;-59
2023/10/29 08:51:03;;;;;;;0.10;0.10;;;;;;;9.96;83.92;97443.09;7364398;19;20038;-59
2023/10/29 08:53:29;;;;;;;0.10;0.10;;;;;;;10.03;83.67;97441.69;7333831;19;20006;-59
2023/10/29 08:55:54;;;;;;;0.00;0.00;;;;;;;10.12;83.93;97445.41;7351654;19;20094;-59
2023/10/29 08:58:22;;;;;;;0.00;0.00;;;;;;;10.21;83.71;97441.31;7352933;19;20018;-60
2023/10/29 09:00:47;;;;;;;0.10;0.10;;;;;;;10.28;83.64;97445.16;7356181;19;20014;-59
2023/10/29 09:03:14;;;;;;;0.10;0.10;;;;;;;10.35;83.78;97449.00;7355926;19;20013;-60
2023/10/29 09:05:39;;;;;;;0.10;0.10;;;;;;;10.40;83.51;97449.50;7362708;19;20471;-58
2023/10/29 09:08:08;;;;;;;0.05;0.05;;;;;;;10.45;83.61;97447.38;7351142;19;20025;-60
2023/10/29 09:10:34;;;;;;;0.10;0.10;;;;;;;10.54;83.49;97457.13;7361289;19;20014;-59
2023/10/29 09:12:59;;;;;;;0.05;0.05;;;;;;;10.58;83.13;97457.72;7360508;19;20491;-60
2023/10/29 09:15:25;;;;;;;0.10;0.10;;;;;;;10.58;83.42;97453.31;7354370;19;19999;-59
2023/10/29 09:17:52;;;;;;;0.00;0.00;;;;;;;10.69;83.23;97459.50;7356340;19;20572;-60
2023/10/29 09:20:17;;;;;;;0.10;0.10;;;;;;;10.71;83.05;97462.84;7362162;19;20566;-59
2023/10/29 09:22:43;;;;;;;0.10;0.10;;;;;;;10.75;82.84;97456.47;7358355;19;20021;-59
2023/10/29 09:25:09;;;;;;;0.10;0.10;;;;;;;10.67;83.15;97435.31;7360688;19;20096;-59
2023/10/29 09:27:34;;;;;;;0.00;0.00;;;;;;;10.82;82.74;97461.09;7358645;19;20031;-59
2023/10/29 09:30:00;;;;;;;0.10;0.10;;;;;;;10.84;83.06;97458.34;7368724;19;20567;-59
2023/10/29 09:32:25;;;;;;;0.10;0.10;;;;;;;10.88;82.67;97459.78;7366706;19;20011;-58
2023/10/29 09:34:51;;;;;;;0.10;0.10;;;;;;;10.90;83.01;97457.91;7364998;19;20011;-60
2023/10/29 09:37:17;;;;;;;0.10;0.10;;;;;;;10.94;83.02;97463.72;7362182;19;20074;-60
2023/10/29 09:39:43;;;;;;;0.10;0.10;;;;;;;10.96;82.62;97462.66;7358903;19;20014;-60
2023/10/29 09:42:11;;;;;;;0.10;0.10;;;;;;;11.00;82.69;97469.31;7369294;19;20018;-59
2023/10/29 09:44:39;;;;;;;0.10;0.10;;;;;;;11.02;82.53;97464.81;7368843;19;20470;-60
2023/10/29 09:47:12;;;;;;;0.10;0.10;;;;;;;11.06;82.59;97463.63;7360170;19;20006;-59
2023/10/29 09:49:38;;;;;;;0.00;0.00;;;;;;;11.07;82.68;97462.69;7361444;19;20014;-59
2023/10/29 09:52:05;;;;;;;0.10;0.10;;;;;;;11.09;82.81;97452.94;7356678;19;20087;-60
2023/10/29 09:54:30;;;;;;;0.00;0.00;;;;;;;11.13;82.56;97453.53;7362188;19;20390;-59
2023/10/29 09:56:56;;;;;;;0.10;0.10;;;;;;;11.17;82.86;97455.81;7356005;19;20579;-59
2023/10/29 09:59:23;;;;;;;0.00;0.00;;;;;;;11.22;82.69;97458.06;7364042;19;20093;-60
2023/10/29 10:01:48;;;;;;;0.10;0.10;;;;;;;11.28;82.54;97454.13;7353596;19;20048;-59
2023/10/29 10:04:13;;;;;;;0.10;0.10;;;;;;;11.32;82.67;97455.56;7362794;19;20012;-60
2023/10/29 10:06:41;;;;;;;0.10;0.10;;;;;;;11.39;82.82;97464.59;7357993;19;20010;-59
2023/10/29 10:09:08;;;;;;;0.10;0.10;;;;;;;11.41;82.59;97467.94;7355360;19;20019;-59
2023/10/29 10:11:33;;;;;;;0.10;0.10;;;;;;;11.46;82.60;97455.34;7358735;19;20554;-60
2023/10/29 10:13:59;;;;;;;0.10;0.10;;;;;;;11.39;82.58;97439.28;7356571;19;20503;-59
2023/10/29 10:16:24;;;;;;;0.10;0.10;;;;;;;11.54;82.43;97433.81;7359512;19;20062;-59
2023/10/29 10:18:57;;;;;;;0.10;0.10;;;;;;;11.66;82.58;97431.06;7353837;19;20459;-58
2023/10/29 10:21:40;;;;;;;0.10;0.10;;;;;;;11.78;82.51;97438.88;7356164;19;20456;-58
2023/10/29 10:24:06;;;;;;;0.10;0.10;;;;;;;11.80;82.25;97431.75;7353243;19;20699;-60
2023/10/29 10:26:36;;;;;;;0.10;0.10;;;;;;;11.88;82.12;97435.44;7354981;19;20591;-60
2023/10/29 10:29:04;;;;;;;0.10;0.10;;;;;;;11.96;82.49;97434.81;7352479;19;20015;-60
2023/10/29 10:31:31;;;;;;;;;;;;;;;12.11;82.72;97436.19;7357509;19;20449;-59
2023/10/29 10:34:16;;;;;;;0.10;0.10;;;;;;;12.24;82.33;97435.22;7364266;19;19926;-58
2023/10/29 10:36:48;;;;;;;0.10;0.10;;;;;;;12.38;82.32;97437.53;7364398;19;20026;-59
2023/10/29 10:39:14;;;;;;;0.10;0.10;;;;;;;12.53;81.43;97446.75;7360479;19;20014;-60
2023/10/29 10:41:45;;;;;;;0.15;0.15;;;;;;;12.75;81.74;97447.56;7352155;19;20660;-59
2023/10/29 10:44:19;;;;;;;0.10;0.10;;;;;;;12.87;81.03;97452.59;7358201;19;20015;-60
2023/10/29 10:46:56;;;;;;;0.10;0.10;;;;;;;13.04;81.13;97439.88;7358305;19;20054;-60
2023/10/29 10:49:22;;;;;;;0.10;0.10;;;;;;;13.13;80.90;97445.19;7357894;19;20916;-59
2023/10/29 10:51:58;;;;;;;0.00;0.00;;;;;;;13.22;80.47;97438.34;7358693;19;20010;-59
2023/10/29 10:54:25;;;;;;;0.10;0.10;;;;;;;13.20;80.04;97427.97;7355961;19;20085;-59
2023/10/29 10:56:56;;;;;;;0.10;0.10;;;;;;;13.38;80.55;97432.59;7358074;19;20010;-60
2023/10/29 10:59:22;;;;;;;0.10;0.10;;;;;;;13.38;79.84;97430.84;7350835;19;20021;-60
2023/10/29 11:01:48;;;;;;;0.10;0.10;;;;;;;13.41;79.86;97416.63;7353440;19;20435;-60
2023/10/29 11:04:15;;;;;;;0.10;0.10;;;;;;;13.33;80.24;97404.19;7359732;19;21205;-59
2023/10/29 11:06:42;;;;;;;0.10;0.10;;;;;;;13.50;80.09;97421.06;7358366;19;20018;-60
2023/10/29 11:09:12;;;;;;;0.10;0.10;;;;;;;13.55;80.36;97413.63;7356107;19;21388;-60
2023/10/29 11:11:58;;;;;;;0.10;0.10;;;;;;;13.65;80.97;97409.25;7356573;19;20957;-59
2023/10/29 11:14:24;;;;;;;0.10;0.10;;;;;;;13.64;80.35;97412.84;7351275;19;20025;-60
2023/10/29 11:16:51;;;;;;;0.10;0.10;;;;;;;13.68;79.96;97408.13;7363803;19;20007;-58
2023/10/29 11:19:35;;;;;;;0.10;0.10;;;;;;;13.79;80.39;97407.19;7364574;19;20014;-58
2023/10/29 11:22:21;;;;;;;0.10;0.10;;;;;;;13.71;80.57;97392.16;7371074;19;20016;-59
2023/10/29 11:25:05;;;;;;;0.17;0.17;;;;;;;13.91;81.07;97414.00;7363626;19;20010;-59
2023/10/29 11:27:47;;;;;;;0.10;0.10;;;;;;;13.88;80.50;97388.03;7357909;19;20014;-60
2023/10/29 11:30:17;;;;;;;0.10;0.10;;;;;;;14.00;80.48;97397.44;7359193;19;20030;-59
2023/10/29 11:32:44;;;;;;;0.10;0.10;;;;;;;14.07;80.24;97397.72;7366272;19;20502;-59